createdAt,value
2022-10-29T00:01:31.299Z,3.95
2022-10-29T00:03:57.907Z,2.70
2022-10-29T00:06:24.461Z,2.40
2022-10-29T00:08:50.935Z,2.00
2022-10-29T00:11:19.319Z,2.05
2022-10-29T00:13:47.660Z,2.90
2022-10-29T00:16:15.435Z,3.05
2022-10-29T00:18:42.110Z,2.90
2022-10-29T00:21:12.666Z,3.38
2022-10-29T00:23:39.205Z,3.55
2022-10-29T00:26:06.115Z,3.35
2022-10-29T00:28:33.322Z,3.63
2022-10-29T00:31:07.411Z,1.52
2022-10-29T00:33:34.048Z,1.88
2022-10-29T00:36:02.419Z,2.63
2022-10-29T00:38:30.850Z,2.33
2022-10-29T00:40:57.510Z,3.53
2022-10-29T00:43:25.781Z,4.30
2022-10-29T00:46:03.317Z,3.50
2022-10-29T00:48:32.243Z,2.80
2022-10-29T00:50:59.460Z,4.22
2022-10-29T00:53:30.400Z,3.20
2022-10-29T00:55:57.750Z,3.60
2022-10-29T00:58:24.294Z,3.05
2022-10-29T01:00:50.857Z,3.53
2022-10-29T01:03:17.354Z,3.90
2022-10-29T01:05:45.330Z,3.80
2022-10-29T01:08:11.903Z,4.38
2022-10-29T01:10:58.045Z,3.83
2022-10-29T01:13:24.560Z,3.47
2022-10-29T01:16:12.084Z,4.78
2022-10-29T01:18:46.739Z,4.43
2022-10-29T01:21:42.842Z,4.40
2022-10-29T01:24:30.632Z,5.05
2022-10-29T01:27:21.641Z,3.88
2022-10-29T01:30:35.568Z,4.45
2022-10-29T01:33:31.593Z,4.50
2022-10-29T01:36:07.037Z,4.30
2022-10-29T01:38:36.179Z,4.93
2022-10-29T01:41:10.817Z,4.53
2022-10-29T01:44:00.337Z,4.75
2022-10-29T01:46:41.002Z,5.13
2022-10-29T01:49:14.599Z,4.70
2022-10-29T01:51:43.213Z,5.95
2022-10-29T01:54:11.296Z,5.07
2022-10-29T01:56:38.204Z,4.63
2022-10-29T01:59:18.054Z,4.90
2022-10-29T02:02:13.709Z,5.10
2022-10-29T02:04:44.953Z,4.70
2022-10-29T02:07:45.720Z,5.18
2022-10-29T02:10:19.258Z,4.82
2022-10-29T02:12:50.908Z,4.80
2022-10-29T02:15:27.813Z,4.50
2022-10-29T02:17:59.613Z,4.25
2022-10-29T02:20:26.105Z,3.85
2022-10-29T02:22:52.779Z,4.68
2022-10-29T02:25:19.279Z,5.32
2022-10-29T02:27:45.803Z,4.13
2022-10-29T02:30:13.719Z,4.90
2022-10-29T02:32:40.297Z,4.55
2022-10-29T02:35:07.211Z,5.18
2022-10-29T02:37:34.032Z,4.55
2022-10-29T02:40:00.619Z,4.97
2022-10-29T02:42:27.117Z,4.65
2022-10-29T02:44:53.698Z,5.03
2022-10-29T02:47:20.189Z,5.13
2022-10-29T02:49:46.653Z,5.20
2022-10-29T02:52:14.829Z,5.18
2022-10-29T02:54:41.401Z,3.45
2022-10-29T02:57:07.920Z,4.05
2022-10-29T02:59:34.438Z,4.35
2022-10-29T03:02:03.191Z,5.10
2022-10-29T03:04:29.891Z,5.50
2022-10-29T03:06:56.570Z,5.22
2022-10-29T03:09:23.106Z,5.65
2022-10-29T03:11:49.765Z,5.05
2022-10-29T03:14:18.022Z,4.28
2022-10-29T03:16:44.607Z,4.47
2022-10-29T03:19:11.231Z,4.85
2022-10-29T03:21:38.097Z,5.78
2022-10-29T03:24:05.467Z,4.75
2022-10-29T03:26:32.167Z,5.90
2022-10-29T03:28:58.757Z,5.90
2022-10-29T03:31:25.259Z,6.45
2022-10-29T03:33:51.808Z,5.75
2022-10-29T03:36:18.974Z,4.85
2022-10-29T03:38:45.571Z,5.95
2022-10-29T03:41:12.018Z,5.32
2022-10-29T03:43:39.762Z,5.22
2022-10-29T03:46:06.501Z,5.80
2022-10-29T03:48:36.114Z,6.70
2022-10-29T03:51:07.817Z,5.18
2022-10-29T03:53:36.188Z,5.45
2022-10-29T03:56:03.563Z,5.40
2022-10-29T03:58:32.773Z,5.95
2022-10-29T04:01:04.724Z,5.32
2022-10-29T04:03:32.586Z,6.75
2022-10-29T04:06:00.499Z,5.40
2022-10-29T04:08:27.251Z,6.18
2022-10-29T04:10:54.079Z,6.22
2022-10-29T04:13:20.762Z,5.63
2022-10-29T04:15:47.386Z,6.03
2022-10-29T04:18:14.825Z,5.22
2022-10-29T04:20:45.622Z,6.25
2022-10-29T04:29:03.629Z,4.63
2022-10-29T04:31:30.163Z,6.57
2022-10-29T04:33:56.794Z,6.85
2022-10-29T04:36:24.378Z,5.30
2022-10-29T04:38:51.093Z,5.63
2022-10-29T04:41:17.632Z,5.60
2022-10-29T04:43:44.982Z,6.30
2022-10-29T04:46:11.631Z,5.53
2022-10-29T04:48:38.263Z,6.28
2022-10-29T04:51:05.016Z,5.65
2022-10-29T04:53:31.636Z,6.40
2022-10-29T04:56:02.205Z,6.57
2022-10-29T04:58:29.073Z,6.03
2022-10-29T05:01:02.025Z,6.13
2022-10-29T05:03:28.635Z,5.80
2022-10-29T05:05:55.276Z,5.90
2022-10-29T05:08:21.815Z,6.53
2022-10-29T05:10:48.347Z,5.78
2022-10-29T05:13:14.876Z,6.20
2022-10-29T05:15:41.814Z,6.35
2022-10-29T05:18:09.384Z,5.88
2022-10-29T05:20:36.036Z,5.93
2022-10-29T05:23:04.875Z,5.90
2022-10-29T05:25:32.717Z,5.72
2022-10-29T05:28:04.432Z,5.63
2022-10-29T05:30:31.398Z,5.90
2022-10-29T05:32:58.275Z,6.13
2022-10-29T05:35:25.275Z,6.05
2022-10-29T05:37:56.238Z,5.70
2022-10-29T05:40:23.461Z,5.78
2022-10-29T05:42:51.125Z,5.80
2022-10-29T05:45:17.784Z,6.78
2022-10-29T05:47:44.396Z,4.93
2022-10-29T05:50:12.076Z,6.35
2022-10-29T05:52:39.127Z,5.88
2022-10-29T05:55:06.645Z,6.38
2022-10-29T05:57:33.303Z,6.00
2022-10-29T05:59:59.762Z,5.55
2022-10-29T06:02:27.345Z,6.32
2022-10-29T06:04:55.647Z,5.93
2022-10-29T06:07:22.181Z,5.53
2022-10-29T06:09:48.668Z,6.63
2022-10-29T06:12:15.284Z,5.97
2022-10-29T06:14:41.848Z,6.28
2022-10-29T06:17:08.365Z,7.85
2022-10-29T06:19:34.954Z,6.03
2022-10-29T06:22:01.534Z,6.35
2022-10-29T06:24:28.027Z,6.30
2022-10-29T06:26:54.864Z,6.20
2022-10-29T06:29:21.472Z,5.45
2022-10-29T06:31:48.031Z,5.97
2022-10-29T06:34:15.659Z,6.07
2022-10-29T06:36:42.473Z,5.68
2022-10-29T06:39:08.945Z,6.13
2022-10-29T06:41:35.447Z,5.82
2022-10-29T06:44:01.976Z,5.80
2022-10-29T06:46:28.622Z,5.93
2022-10-29T06:48:55.323Z,5.97
2022-10-29T06:54:09.761Z,5.97
2022-10-29T06:56:36.301Z,5.32
2022-10-29T06:59:02.895Z,6.63
2022-10-29T07:01:33.311Z,5.60
2022-10-29T07:04:00.582Z,5.93
2022-10-29T07:06:27.840Z,5.88
2022-10-29T07:08:55.123Z,6.32
2022-10-29T07:11:21.628Z,6.03
2022-10-29T07:13:48.159Z,5.75
2022-10-29T07:16:14.694Z,5.50
2022-10-29T07:18:41.199Z,6.13
2022-10-29T07:21:07.783Z,5.95
2022-10-29T07:23:34.345Z,5.60
2022-10-29T07:26:00.851Z,5.88
2022-10-29T07:28:27.397Z,6.13
2022-10-29T07:30:59.440Z,6.40
2022-10-29T07:33:28.240Z,5.43
2022-10-29T07:35:57.084Z,3.45
2022-10-29T07:38:25.323Z,5.75
2022-10-29T07:40:51.883Z,6.07
2022-10-29T07:43:19.520Z,5.75
2022-10-29T07:45:50.053Z,5.20
2022-10-29T07:48:17.475Z,5.05
2022-10-29T07:50:44.003Z,5.28
2022-10-29T07:53:10.662Z,6.15
2022-10-29T07:55:37.288Z,5.68
2022-10-29T07:58:06.487Z,5.38
2022-10-29T08:00:35.384Z,4.90
2022-10-29T08:03:01.921Z,4.97
2022-10-29T08:05:29.994Z,4.78
2022-10-29T08:07:58.345Z,5.40
2022-10-29T08:10:25.313Z,5.10
2022-10-29T08:12:53.715Z,4.68
2022-10-29T08:15:20.847Z,4.65
2022-10-29T08:17:47.925Z,5.78
2022-10-29T08:20:15.405Z,5.93
2022-10-29T08:22:42.798Z,4.97
2022-10-29T08:25:10.426Z,5.95
2022-10-29T08:27:37.608Z,5.47
2022-10-29T08:30:05.985Z,5.00
2022-10-29T08:32:32.565Z,5.95
2022-10-29T08:34:59.124Z,5.70
2022-10-29T08:37:30.943Z,5.07
2022-10-29T08:39:57.566Z,6.70
2022-10-29T08:42:51.056Z,6.28
2022-10-29T08:45:29.228Z,6.05
2022-10-29T08:48:14.571Z,5.68
2022-10-29T08:50:45.041Z,6.57
2022-10-29T08:53:40.076Z,6.15
2022-10-29T08:56:13.231Z,6.80
2022-10-29T08:58:56.261Z,6.25
2022-10-29T09:01:23.634Z,6.47
2022-10-29T09:03:51.172Z,6.50
2022-10-29T09:06:42.896Z,5.60
2022-10-29T09:09:26.874Z,6.25
2022-10-29T09:12:14.404Z,6.75
2022-10-29T09:14:57.529Z,4.93
2022-10-29T09:17:43.376Z,5.07
2022-10-29T09:20:37.061Z,6.30
2022-10-29T09:23:10.476Z,5.63
2022-10-29T09:26:01.693Z,6.22
2022-10-29T09:28:38.160Z,5.95
2022-10-29T09:31:16.851Z,7.70
2022-10-29T09:33:48.844Z,3.92
2022-10-29T09:36:17.938Z,3.55
2022-10-29T09:39:03.208Z,5.13
2022-10-29T09:41:34.129Z,4.20
2022-10-29T09:44:38.149Z,5.65
2022-10-29T09:47:15.649Z,4.32
2022-10-29T09:50:05.385Z,6.38
2022-10-29T09:52:36.839Z,5.15
2022-10-29T09:55:06.180Z,3.67
2022-10-29T09:57:34.772Z,5.07
2022-10-29T10:00:07.730Z,4.35
2022-10-29T10:02:44.137Z,4.43
2022-10-29T10:05:24.203Z,4.75
2022-10-29T10:08:09.441Z,4.78
2022-10-29T10:10:58.206Z,4.75
2022-10-29T10:13:27.823Z,4.68
2022-10-29T10:16:02.832Z,5.57
2022-10-29T10:18:32.469Z,5.15
2022-10-29T10:21:01.833Z,5.40
2022-10-29T10:23:49.261Z,5.80
2022-10-29T10:26:29.966Z,4.82
2022-10-29T10:29:19.008Z,4.95
2022-10-29T10:31:47.440Z,4.65
2022-10-29T10:34:15.551Z,5.47
2022-10-29T10:36:49.253Z,4.18
2022-10-29T10:39:26.173Z,6.15
2022-10-29T10:41:53.095Z,5.82
2022-10-29T10:44:21.006Z,5.50
2022-10-29T10:46:49.552Z,4.80
2022-10-29T10:49:28.346Z,5.60
2022-10-29T10:51:56.145Z,5.63
2022-10-29T10:54:37.177Z,6.28
2022-10-29T10:57:13.149Z,5.03
2022-10-29T11:00:01.182Z,5.10
2022-10-29T11:02:36.544Z,5.20
2022-10-29T11:05:10.362Z,5.72
2022-10-29T11:07:39.846Z,5.00
2022-10-29T11:10:10.944Z,5.35
2022-10-29T11:12:43.248Z,4.93
2022-10-29T11:15:20.241Z,3.60
2022-10-29T11:17:54.326Z,4.43
2022-10-29T11:20:31.885Z,4.15
2022-10-29T11:23:12.331Z,4.70
2022-10-29T11:25:46.323Z,4.55
2022-10-29T11:28:24.318Z,4.50
2022-10-29T11:30:56.482Z,3.88
2022-10-29T11:33:33.078Z,3.60
2022-10-29T11:36:15.151Z,4.68
2022-10-29T11:38:46.605Z,4.00
2022-10-29T11:41:37.018Z,5.15
2022-10-29T11:44:03.871Z,4.25
2022-10-29T11:46:53.477Z,4.90
2022-10-29T11:49:30.295Z,4.63
2022-10-29T11:51:59.497Z,5.45
2022-10-29T11:54:38.624Z,4.35
2022-10-29T11:57:26.277Z,3.60
2022-10-29T12:00:00.824Z,4.82
2022-10-29T12:02:52.097Z,4.35
2022-10-29T12:05:24.177Z,4.38
2022-10-29T12:08:21.747Z,4.53
2022-10-29T12:11:00.541Z,4.85
2022-10-29T12:13:33.530Z,5.47
2022-10-29T12:16:20.275Z,5.32
2022-10-29T12:19:10.839Z,5.47
2022-10-29T12:21:58.158Z,7.13
2022-10-29T12:24:30.656Z,5.53
2022-10-29T12:27:15.353Z,5.50
2022-10-29T12:29:49.845Z,4.35
2022-10-29T12:32:28.056Z,4.38
2022-10-29T12:35:03.083Z,5.05
2022-10-29T12:38:07.204Z,5.47
2022-10-29T12:40:35.246Z,4.05
2022-10-29T12:43:05.484Z,4.63
2022-10-29T12:46:21.607Z,5.00
2022-10-29T12:49:08.853Z,4.07
2022-10-29T12:51:59.394Z,3.92
2022-10-29T12:54:29.507Z,5.40
2022-10-29T12:56:57.398Z,4.72
2022-10-29T12:59:23.830Z,4.90
2022-10-29T13:05:06.147Z,5.45
2022-10-29T13:07:33.792Z,5.22
2022-10-29T13:10:24.423Z,5.55
2022-10-29T13:12:59.923Z,5.22
2022-10-29T13:15:32.939Z,6.13
2022-10-29T13:18:08.386Z,4.25
2022-10-29T13:20:46.721Z,3.97
2022-10-29T13:23:21.850Z,4.97
2022-10-29T13:25:55.429Z,5.07
2022-10-29T13:28:21.925Z,4.18
2022-10-29T13:30:49.452Z,4.30
2022-10-29T13:33:27.727Z,3.22
2022-10-29T13:36:06.556Z,5.50
2022-10-29T13:39:04.232Z,6.63
2022-10-29T13:41:50.131Z,4.22
2022-10-29T13:44:20.839Z,4.07
2022-10-29T13:47:01.143Z,4.07
2022-10-29T13:49:37.138Z,3.63
2022-10-29T13:52:10.728Z,4.70
2022-10-29T13:54:44.255Z,4.20
2022-10-29T13:57:13.665Z,5.80
2022-10-29T13:59:58.420Z,4.45
2022-10-29T14:02:37.290Z,5.15
2022-10-29T14:05:26.512Z,4.20
2022-10-29T14:08:03.819Z,3.78
2022-10-29T14:10:36.581Z,5.10
2022-10-29T14:13:24.569Z,5.20
2022-10-29T14:16:03.682Z,4.63
2022-10-29T14:18:41.425Z,6.18
2022-10-29T14:21:28.919Z,4.80
2022-10-29T14:24:03.717Z,5.25
2022-10-29T14:26:34.544Z,4.47
2022-10-29T14:29:21.870Z,5.28
2022-10-29T14:32:04.275Z,6.20
2022-10-29T14:34:31.085Z,5.13
2022-10-29T14:37:04.514Z,4.97
2022-10-29T14:39:57.106Z,5.55
2022-10-29T14:42:34.258Z,5.10
2022-10-29T14:45:16.867Z,10.40
2022-10-29T14:47:43.517Z,0.85
2022-10-29T14:50:19.039Z,2.38
2022-10-29T14:52:53.255Z,6.68
2022-10-29T14:55:24.028Z,4.35
2022-10-29T14:58:14.979Z,4.93
2022-10-29T15:00:55.623Z,5.55
2022-10-29T15:03:24.026Z,6.05
2022-10-29T15:05:50.813Z,6.07
2022-10-29T15:08:24.308Z,6.53
2022-10-29T15:10:56.734Z,5.40
2022-10-29T15:13:32.217Z,4.90
2022-10-29T15:16:19.020Z,5.03
2022-10-29T15:18:48.526Z,5.70
2022-10-29T15:21:26.385Z,6.35
2022-10-29T15:23:55.835Z,5.63
2022-10-29T15:26:22.908Z,6.10
2022-10-29T15:28:56.176Z,6.18
2022-10-29T15:31:31.326Z,6.50
2022-10-29T15:34:03.502Z,6.53
2022-10-29T15:36:44.908Z,5.65
2022-10-29T15:39:26.937Z,5.80
2022-10-29T15:41:59.178Z,5.85
2022-10-29T15:44:31.930Z,6.25
2022-10-29T15:47:09.721Z,6.63
2022-10-29T15:49:37.070Z,5.88
2022-10-29T15:52:03.720Z,6.45
2022-10-29T15:54:30.330Z,6.07
2022-10-29T15:56:57.608Z,6.05
2022-10-29T15:59:26.950Z,12.85
2022-10-29T16:01:54.068Z,5.60
2022-10-29T16:04:20.711Z,4.50
2022-10-29T16:06:47.232Z,5.80
2022-10-29T16:09:18.764Z,0.73
2022-10-29T16:11:45.619Z,0.20
2022-10-29T16:14:12.146Z,0.10
2022-10-29T16:16:38.673Z,0.20
2022-10-29T16:19:05.827Z,0.10
2022-10-29T16:21:32.466Z,0.17
2022-10-29T16:23:59.094Z,0.10
2022-10-29T16:26:26.240Z,0.10
2022-10-29T16:28:53.401Z,0.10
2022-10-29T16:31:23.166Z,0.10
2022-10-29T16:33:51.206Z,0.20
2022-10-29T16:36:17.963Z,0.20
2022-10-29T16:38:44.562Z,0.20
2022-10-29T16:41:16.625Z,0.25
2022-10-29T16:43:47.562Z,0.20
2022-10-29T16:46:14.234Z,0.20
2022-10-29T16:48:41.086Z,1.38
2022-10-29T16:51:08.152Z,8.32
2022-10-29T16:53:35.312Z,4.68
2022-10-29T16:56:02.085Z,7.53
2022-10-29T16:58:28.692Z,1.75
2022-10-29T17:01:05.855Z,3.60
2022-10-29T17:03:33.333Z,3.97
2022-10-29T17:06:07.916Z,4.65
2022-10-29T17:08:35.347Z,5.72
2022-10-29T17:11:03.837Z,6.30
2022-10-29T17:13:31.136Z,5.18
2022-10-29T17:15:57.780Z,5.00
2022-10-29T17:18:24.900Z,6.25
2022-10-29T17:21:01.606Z,6.10
2022-10-29T17:23:29.198Z,6.30
2022-10-29T17:25:57.071Z,3.70
2022-10-29T17:28:25.763Z,6.38
2022-10-29T17:30:53.784Z,5.80
2022-10-29T17:33:20.314Z,6.88
2022-10-29T17:35:48.020Z,7.63
2022-10-29T17:38:14.653Z,8.35
2022-10-29T17:40:43.755Z,10.05
2022-10-29T17:43:10.307Z,10.65
2022-10-29T17:45:37.188Z,7.75
2022-10-29T17:48:03.941Z,7.82
2022-10-29T17:50:30.718Z,8.00
2022-10-29T17:52:58.081Z,8.20
2022-10-29T17:55:24.678Z,7.45
2022-10-29T17:57:51.286Z,7.47
2022-10-29T18:00:18.329Z,6.40
2022-10-29T18:02:45.170Z,6.65
2022-10-29T18:05:11.797Z,8.15
2022-10-29T18:07:38.410Z,5.00
2022-10-29T18:10:05.252Z,0.20
2022-10-29T18:12:32.634Z,0.10
2022-10-29T18:15:02.080Z,0.10
2022-10-29T18:17:29.057Z,0.10
2022-10-29T18:19:56.691Z,0.10
2022-10-29T18:22:23.152Z,0.13
2022-10-29T18:24:49.650Z,0.20
2022-10-29T18:27:16.234Z,0.10
2022-10-29T18:29:42.760Z,0.10
2022-10-29T18:32:09.304Z,0.10
2022-10-29T18:34:37.021Z,0.10
2022-10-29T18:37:03.693Z,0.10
2022-10-29T18:39:30.159Z,0.13
2022-10-29T18:41:58.189Z,1.13
2022-10-29T18:44:24.662Z,0.30
2022-10-29T18:46:51.431Z,0.10
2022-10-29T18:49:18.743Z,0.20
2022-10-29T18:51:45.362Z,0.10
2022-10-29T18:54:13.186Z,0.10
2022-10-29T18:56:39.897Z,0.10
2022-10-29T18:59:07.003Z,0.15
2022-10-29T19:01:34.723Z,0.20
2022-10-29T19:04:05.722Z,0.15
2022-10-29T19:06:34.943Z,0.20
2022-10-29T19:09:03.310Z,0.20
2022-10-29T19:11:31.058Z,0.10
2022-10-29T19:13:59.188Z,0.10
2022-10-29T19:16:26.707Z,0.10
2022-10-29T19:19:01.571Z,0.10
2022-10-29T19:21:28.183Z,0.10
2022-10-29T19:23:59.337Z,0.10
2022-10-29T19:26:28.809Z,0.20
2022-10-29T19:28:55.791Z,0.13
2022-10-29T19:31:26.646Z,0.75
2022-10-29T19:33:55.751Z,2.35
2022-10-29T19:36:23.512Z,3.42
2022-10-29T19:38:50.201Z,5.40
2022-10-29T19:41:17.451Z,6.10
2022-10-29T19:43:44.741Z,6.13
2022-10-29T19:46:16.657Z,4.68
2022-10-29T19:48:43.703Z,3.00
2022-10-29T19:51:10.889Z,1.27
2022-10-29T19:53:38.310Z,4.20
2022-10-29T19:56:06.820Z,3.70
2022-10-29T19:58:33.447Z,6.15
2022-10-29T20:01:07.755Z,3.83
2022-10-29T20:03:34.395Z,6.45
2022-10-29T20:06:00.844Z,12.35
2022-10-29T20:08:27.563Z,3.53
2022-10-29T20:10:57.173Z,6.10
2022-10-29T20:13:23.912Z,7.70
2022-10-29T20:15:52.662Z,8.98
2022-10-29T20:18:19.644Z,5.05
2022-10-29T20:20:46.079Z,5.90
2022-10-29T20:23:12.720Z,9.90
2022-10-29T20:25:39.156Z,9.65
2022-10-29T20:28:05.683Z,7.95
2022-10-29T20:30:32.227Z,7.45
2022-10-29T20:32:59.072Z,10.48
2022-10-29T20:35:25.773Z,7.03
2022-10-29T20:37:52.340Z,5.03
2022-10-29T20:40:18.900Z,6.68
2022-10-29T20:42:49.411Z,8.35
2022-10-29T20:45:17.208Z,9.82
2022-10-29T20:47:43.699Z,10.70
2022-10-29T20:50:10.176Z,7.68
2022-10-29T20:52:36.874Z,10.98
2022-10-29T20:55:03.681Z,10.57
2022-10-29T20:57:31.488Z,10.80
2022-10-29T20:59:58.703Z,10.85
2022-10-29T21:02:25.532Z,12.98
2022-10-29T21:04:52.249Z,14.65
2022-10-29T21:07:19.815Z,13.60
2022-10-29T21:09:47.877Z,14.63
2022-10-29T21:12:14.383Z,14.80
2022-10-29T21:14:41.937Z,11.70
2022-10-29T21:17:08.407Z,12.50
2022-10-29T21:19:34.888Z,11.82
2022-10-29T21:22:01.501Z,11.25
2022-10-29T21:24:27.980Z,12.20
2022-10-29T21:26:54.453Z,14.43
2022-10-29T21:29:20.990Z,14.75
2022-10-29T21:31:50.164Z,14.40
2022-10-29T21:34:16.689Z,14.00
2022-10-29T21:36:44.032Z,13.00
2022-10-29T21:39:10.501Z,12.07
2022-10-29T21:41:36.969Z,14.13
2022-10-29T21:44:03.660Z,13.43
2022-10-29T21:46:30.102Z,11.90
2022-10-29T21:48:56.763Z,9.45
2022-10-29T21:51:23.283Z,11.07
2022-10-29T21:53:49.789Z,11.93
2022-10-29T21:56:16.347Z,14.63
2022-10-29T21:58:43.277Z,14.55
2022-10-29T22:01:13.781Z,13.88
2022-10-29T22:03:41.602Z,13.25
2022-10-29T22:06:19.940Z,14.15
2022-10-29T22:08:47.367Z,17.33
2022-10-29T22:11:15.022Z,13.55
2022-10-29T22:13:41.543Z,12.65
2022-10-29T22:16:08.808Z,12.93
2022-10-29T22:18:35.544Z,13.00
2022-10-29T22:21:20.451Z,13.10
2022-10-29T22:23:55.110Z,13.93
2022-10-29T22:26:24.392Z,10.88
2022-10-29T22:28:50.977Z,10.63
2022-10-29T22:31:19.328Z,11.40
2022-10-29T22:33:46.178Z,13.18
2022-10-29T22:36:15.348Z,13.48
2022-10-29T22:38:41.970Z,11.23
2022-10-29T22:41:14.968Z,11.93
2022-10-29T22:43:42.083Z,11.38
2022-10-29T22:46:10.046Z,12.77
2022-10-29T22:48:37.049Z,13.80
2022-10-29T22:51:23.244Z,12.15
2022-10-29T22:53:51.146Z,14.15
2022-10-29T22:56:20.010Z,15.20
2022-10-29T22:58:46.640Z,11.85
2022-10-29T23:01:16.121Z,14.20
2022-10-29T23:03:43.570Z,13.82
2022-10-29T23:06:12.334Z,12.38
2022-10-29T23:08:39.988Z,8.73
2022-10-29T23:11:19.267Z,9.00
2022-10-29T23:13:47.038Z,10.65
2022-10-29T23:16:13.866Z,12.52
2022-10-29T23:18:40.549Z,12.68
2022-10-29T23:21:17.630Z,7.63
2022-10-29T23:23:44.378Z,20.05
2022-10-29T23:26:11.751Z,13.98
2022-10-29T23:28:42.042Z,11.02
2022-10-29T23:31:19.262Z,14.43
2022-10-29T23:33:47.691Z,15.90
2022-10-29T23:36:15.193Z,12.90
2022-10-29T23:38:41.806Z,13.07
2022-10-29T23:41:08.731Z,13.27
2022-10-29T23:43:35.275Z,13.18
2022-10-29T23:46:01.847Z,12.68
2022-10-29T23:48:29.378Z,13.75
2022-10-29T23:50:56.604Z,16.48
2022-10-29T23:53:24.010Z,11.07
2022-10-29T23:55:51.573Z,4.65
2022-10-29T23:58:18.327Z,7.93
